createdAt,value
2022-11-17T00:00:37.528Z,13.30
2022-11-17T00:03:04.155Z,14.88
2022-11-17T00:05:30.775Z,16.25
2022-11-17T00:07:57.303Z,15.73
2022-11-17T00:10:23.745Z,14.45
2022-11-17T00:13:08.808Z,15.48
2022-11-17T00:15:35.308Z,15.63
2022-11-17T00:18:20.245Z,15.35
2022-11-17T00:21:05.645Z,16.27
2022-11-17T00:23:47.646Z,16.17
2022-11-17T00:26:25.483Z,14.73
2022-11-17T00:29:04.486Z,14.82
2022-11-17T00:31:52.078Z,16.15
2022-11-17T00:34:21.332Z,14.70
2022-11-17T00:36:50.193Z,15.32
2022-11-17T00:39:18.455Z,14.70
2022-11-17T00:41:44.929Z,15.02
2022-11-17T00:44:11.985Z,15.00
2022-11-17T00:46:39.274Z,14.63
2022-11-17T00:49:07.355Z,15.25
2022-11-17T00:51:34.605Z,15.23
2022-11-17T00:54:01.829Z,15.35
2022-11-17T00:56:28.492Z,14.57
2022-11-17T00:58:55.323Z,14.55
2022-11-17T01:01:22.194Z,15.32
2022-11-17T01:03:48.948Z,15.15
2022-11-17T01:06:17.935Z,16.40
2022-11-17T01:08:44.968Z,16.05
2022-11-17T01:11:19.031Z,16.02
2022-11-17T01:13:47.581Z,16.50
2022-11-17T01:16:18.236Z,16.67
2022-11-17T01:18:47.545Z,16.13
2022-11-17T01:21:23.450Z,16.58
2022-11-17T01:23:53.625Z,16.02
2022-11-17T01:26:23.360Z,15.23
2022-11-17T01:28:50.728Z,17.75
2022-11-17T01:31:29.054Z,16.60
2022-11-17T01:33:56.364Z,16.10
2022-11-17T01:36:24.371Z,16.77
2022-11-17T01:38:50.951Z,17.58
2022-11-17T01:41:20.266Z,17.40
2022-11-17T01:43:48.539Z,16.70
2022-11-17T01:46:37.092Z,17.77
2022-11-17T01:49:10.714Z,17.13
2022-11-17T01:51:41.600Z,16.77
2022-11-17T01:54:11.027Z,15.50
2022-11-17T01:56:42.078Z,17.23
2022-11-17T01:59:40.148Z,17.33
2022-11-17T02:02:07.110Z,17.05
2022-11-17T02:04:38.274Z,17.92
2022-11-17T02:07:14.204Z,17.73
2022-11-17T02:09:40.848Z,17.65
2022-11-17T02:12:10.540Z,18.20
2022-11-17T02:14:38.641Z,18.67
2022-11-17T02:17:13.124Z,18.52
2022-11-17T02:19:43.031Z,16.73
2022-11-17T02:22:48.182Z,17.67
2022-11-17T02:25:58.836Z,18.08
2022-11-17T02:28:34.737Z,17.20
2022-11-17T02:31:07.360Z,16.48
2022-11-17T02:33:41.063Z,18.13
2022-11-17T02:36:15.407Z,17.35
2022-11-17T02:38:54.813Z,18.20
2022-11-17T02:41:31.076Z,18.17
2022-11-17T02:44:05.583Z,18.52
2022-11-17T02:46:52.569Z,18.55
2022-11-17T02:49:25.909Z,18.42
2022-11-17T02:51:56.086Z,18.58
2022-11-17T02:54:25.218Z,16.83
2022-11-17T02:56:51.686Z,16.75
2022-11-17T02:59:25.468Z,18.10
2022-11-17T03:01:57.979Z,17.20
2022-11-17T03:04:41.777Z,15.63
2022-11-17T03:07:34.297Z,16.92
2022-11-17T03:10:17.017Z,17.33
2022-11-17T03:12:43.548Z,15.88
2022-11-17T03:15:24.090Z,18.40
2022-11-17T03:18:13.973Z,15.95
2022-11-17T03:20:51.449Z,17.23
2022-11-17T03:23:21.565Z,15.35
2022-11-17T03:25:55.641Z,15.18
2022-11-17T03:28:27.969Z,16.38
2022-11-17T03:30:56.712Z,15.80
2022-11-17T03:33:25.696Z,16.00
2022-11-17T03:36:00.902Z,14.30
2022-11-17T03:38:29.979Z,15.73
2022-11-17T03:40:59.149Z,16.70
2022-11-17T03:43:27.601Z,15.80
2022-11-17T03:45:57.048Z,15.98
2022-11-17T03:48:36.817Z,16.85
2022-11-17T03:51:14.752Z,16.42
2022-11-17T03:53:42.286Z,13.93
2022-11-17T03:56:27.374Z,14.73
2022-11-17T03:59:01.500Z,15.15
2022-11-17T04:01:30.930Z,14.60
2022-11-17T04:03:57.421Z,14.75
2022-11-17T04:06:24.115Z,14.93
2022-11-17T04:08:50.715Z,15.10
2022-11-17T04:11:35.840Z,14.07
2022-11-17T04:14:20.601Z,14.63
2022-11-17T04:16:47.178Z,16.60
2022-11-17T04:19:13.691Z,12.82
2022-11-17T04:21:40.195Z,15.77
2022-11-17T04:24:07.073Z,13.73
2022-11-17T04:26:52.134Z,13.45
2022-11-17T04:29:18.838Z,15.05
2022-11-17T04:31:45.525Z,14.85
2022-11-17T04:34:12.044Z,14.18
2022-11-17T04:36:46.050Z,12.90
2022-11-17T04:39:14.281Z,13.68
2022-11-17T04:41:54.010Z,13.40
2022-11-17T04:44:23.251Z,13.43
2022-11-17T04:46:50.078Z,12.82
2022-11-17T04:49:18.679Z,13.02
2022-11-17T04:51:45.703Z,13.68
2022-11-17T04:54:14.563Z,13.27
2022-11-17T04:56:41.413Z,12.93
2022-11-17T04:59:08.738Z,13.02
2022-11-17T05:01:36.223Z,13.00
2022-11-17T05:04:11.208Z,13.23
2022-11-17T05:06:43.119Z,13.32
2022-11-17T05:09:15.275Z,13.77
2022-11-17T05:12:01.216Z,12.95
2022-11-17T05:14:28.757Z,13.55
2022-11-17T05:17:11.301Z,11.63
2022-11-17T05:19:40.734Z,13.20
2022-11-17T05:22:27.410Z,12.02
2022-11-17T05:24:54.300Z,12.95
2022-11-17T05:27:22.541Z,12.43
2022-11-17T05:29:49.201Z,12.18
2022-11-17T05:32:15.830Z,11.43
2022-11-17T05:34:42.285Z,12.88
2022-11-17T05:37:08.717Z,12.55
2022-11-17T05:39:35.554Z,12.25
2022-11-17T05:42:02.027Z,11.73
2022-11-17T05:44:28.469Z,10.98
2022-11-17T05:46:54.915Z,10.75
2022-11-17T05:49:21.661Z,10.68
2022-11-17T05:51:52.467Z,12.63
2022-11-17T05:54:19.538Z,10.20
2022-11-17T05:57:01.335Z,11.48
2022-11-17T05:59:36.615Z,11.52
2022-11-17T06:04:49.500Z,10.18
2022-11-17T06:07:19.419Z,10.50
2022-11-17T06:09:46.841Z,11.43
2022-11-17T06:12:15.578Z,10.95
2022-11-17T06:14:43.007Z,12.00
2022-11-17T06:17:24.715Z,11.68
2022-11-17T06:20:01.634Z,11.63
2022-11-17T06:22:30.096Z,11.85
2022-11-17T06:24:57.751Z,11.20
2022-11-17T06:27:26.692Z,11.50
2022-11-17T06:29:55.170Z,10.65
2022-11-17T06:32:22.101Z,11.25
2022-11-17T06:34:55.148Z,12.38
2022-11-17T06:37:22.696Z,11.38
2022-11-17T06:39:49.667Z,12.60
2022-11-17T06:42:21.097Z,11.38
2022-11-17T06:44:53.120Z,12.25
2022-11-17T06:47:20.061Z,12.32
2022-11-17T06:49:46.765Z,13.18
2022-11-17T06:52:13.880Z,13.32
2022-11-17T06:54:40.567Z,12.45
2022-11-17T06:57:07.226Z,12.43
2022-11-17T06:59:33.977Z,13.40
2022-11-17T07:02:00.839Z,13.48
2022-11-17T07:04:27.709Z,13.32
2022-11-17T07:06:54.469Z,14.50
2022-11-17T07:09:21.312Z,13.60
2022-11-17T07:11:48.126Z,14.73
2022-11-17T07:14:15.155Z,14.85
2022-11-17T07:16:43.290Z,12.68
2022-11-17T07:19:10.675Z,13.68
2022-11-17T07:21:37.625Z,14.13
2022-11-17T07:24:04.581Z,14.25
2022-11-17T07:26:31.278Z,13.63
2022-11-17T07:28:57.936Z,15.25
2022-11-17T07:31:24.848Z,15.30
2022-11-17T07:33:53.903Z,14.55
2022-11-17T07:36:20.675Z,14.50
2022-11-17T07:38:47.625Z,14.70
2022-11-17T07:41:14.928Z,17.65
2022-11-17T07:43:41.964Z,15.98
2022-11-17T07:46:13.765Z,16.30
2022-11-17T07:48:41.985Z,15.32
2022-11-17T07:51:14.252Z,14.50
2022-11-17T07:53:41.266Z,16.45
2022-11-17T07:56:11.083Z,15.90
2022-11-17T07:58:38.962Z,15.77
2022-11-17T08:01:11.036Z,16.63
2022-11-17T08:03:38.232Z,15.73
2022-11-17T08:06:09.463Z,15.23
2022-11-17T08:08:39.937Z,15.20
2022-11-17T08:11:09.842Z,14.23
2022-11-17T08:13:37.994Z,14.80
2022-11-17T08:16:05.440Z,14.15
2022-11-17T08:18:32.879Z,13.93
2022-11-17T08:21:07.717Z,13.10
2022-11-17T08:23:39.891Z,13.23
2022-11-17T08:26:11.438Z,14.88
2022-11-17T08:28:38.643Z,14.50
2022-11-17T08:31:07.412Z,15.60
2022-11-17T08:33:34.706Z,13.90
2022-11-17T08:36:07.281Z,13.95
2022-11-17T08:38:36.973Z,13.35
2022-11-17T08:41:09.751Z,14.52
2022-11-17T08:43:36.951Z,13.20
2022-11-17T08:46:04.053Z,12.85
2022-11-17T08:48:31.889Z,13.63
2022-11-17T08:51:07.398Z,13.27
2022-11-17T08:57:23.017Z,13.50
2022-11-17T08:59:52.933Z,12.52
2022-11-17T09:02:51.499Z,12.73
2022-11-17T09:05:30.656Z,12.90
2022-11-17T09:08:43.285Z,13.30
2022-11-17T09:11:06.571Z,11.80
2022-11-17T09:13:38.495Z,11.55
2022-11-17T09:16:11.082Z,12.05
2022-11-17T09:18:50.615Z,11.63
2022-11-17T09:21:24.141Z,11.60
2022-11-17T09:27:15.867Z,10.73
2022-11-17T09:30:27.080Z,12.13
2022-11-17T09:33:18.187Z,11.30
2022-11-17T09:35:50.875Z,11.35
2022-11-17T09:38:23.852Z,11.60
2022-11-17T09:40:58.824Z,10.80
2022-11-17T09:43:30.935Z,11.98
2022-11-17T09:46:15.943Z,12.20
2022-11-17T09:48:59.591Z,11.20
2022-11-17T09:51:35.586Z,10.40
2022-11-17T09:54:35.843Z,11.65
2022-11-17T09:57:43.796Z,11.20
2022-11-17T10:00:24.007Z,10.82
2022-11-17T10:03:56.791Z,9.50
2022-11-17T10:10:43.578Z,9.38
2022-11-17T10:13:33.643Z,10.30
2022-11-17T10:16:36.026Z,9.63
2022-11-17T10:19:17.973Z,10.00
2022-11-17T10:22:13.996Z,9.15
2022-11-17T10:24:45.366Z,8.65
2022-11-17T10:27:24.389Z,8.63
2022-11-17T10:30:44.203Z,9.40
2022-11-17T10:33:19.773Z,8.60
2022-11-17T10:36:03.671Z,8.65
2022-11-17T10:38:30.892Z,8.05
2022-11-17T10:41:00.694Z,8.20
2022-11-17T10:47:34.948Z,7.95
2022-11-17T10:50:23.882Z,8.73
2022-11-17T10:52:59.196Z,8.32
2022-11-17T10:55:41.857Z,8.52
2022-11-17T10:58:28.717Z,8.35
2022-11-17T11:01:05.002Z,8.07
2022-11-17T11:03:39.057Z,7.40
2022-11-17T11:06:33.231Z,7.72
2022-11-17T11:11:53.966Z,6.70
2022-11-17T11:14:53.906Z,6.78
2022-11-17T11:36:07.834Z,6.85
2022-11-17T11:38:56.264Z,6.13
2022-11-17T11:41:56.340Z,6.72
2022-11-17T11:44:39.667Z,6.28
2022-11-17T11:47:20.075Z,5.65
2022-11-17T11:49:56.480Z,5.88
2022-11-17T11:52:30.733Z,6.38
2022-11-17T11:55:01.962Z,5.30
2022-11-17T11:57:39.123Z,5.97
2022-11-17T12:00:14.010Z,5.35
2022-11-17T12:03:23.744Z,5.38
2022-11-17T12:06:41.542Z,5.05
2022-11-17T12:09:40.213Z,4.30
2022-11-17T12:12:16.465Z,4.10
2022-11-17T12:15:08.517Z,4.25
2022-11-17T12:17:35.678Z,3.80
2022-11-17T12:20:30.987Z,3.97
2022-11-17T12:23:19.023Z,3.83
2022-11-17T12:25:53.470Z,3.42
2022-11-17T12:28:40.858Z,4.10
2022-11-17T12:31:18.764Z,2.90
2022-11-17T12:34:10.931Z,2.95
2022-11-17T12:36:38.451Z,3.53
2022-11-17T12:39:09.441Z,2.90
2022-11-17T12:41:54.530Z,2.90
2022-11-17T12:44:49.474Z,3.15
2022-11-17T12:47:21.803Z,2.55
2022-11-17T12:50:10.439Z,3.92
2022-11-17T12:52:59.054Z,2.78
2022-11-17T12:56:11.771Z,3.42
2022-11-17T12:59:27.240Z,3.40
2022-11-17T13:02:08.842Z,3.20
2022-11-17T13:04:52.083Z,3.78
2022-11-17T13:07:22.119Z,4.00
2022-11-17T13:09:59.299Z,4.65
2022-11-17T13:12:31.380Z,4.22
2022-11-17T13:15:02.862Z,2.40
2022-11-17T13:17:44.181Z,1.33
2022-11-17T13:20:30.766Z,1.98
2022-11-17T13:23:18.895Z,1.98
2022-11-17T13:26:35.708Z,2.15
2022-11-17T13:29:12.742Z,1.50
2022-11-17T13:31:41.506Z,1.08
2022-11-17T13:34:17.614Z,1.38
2022-11-17T13:37:00.833Z,1.35
2022-11-17T13:39:28.744Z,2.10
2022-11-17T13:42:02.324Z,1.55
2022-11-17T13:44:29.602Z,1.63
2022-11-17T13:46:56.402Z,1.70
2022-11-17T13:49:36.561Z,1.67
2022-11-17T13:52:05.912Z,1.48
2022-11-17T13:54:33.568Z,0.75
2022-11-17T13:57:08.476Z,1.20
2022-11-17T13:59:41.472Z,1.48
2022-11-17T14:02:21.511Z,2.05
2022-11-17T14:05:25.557Z,1.20
2022-11-17T14:08:48.413Z,1.50
2022-11-17T14:11:21.690Z,1.20
2022-11-17T14:13:59.506Z,1.35
2022-11-17T14:16:37.689Z,2.17
2022-11-17T14:19:31.945Z,2.67
2022-11-17T14:22:19.614Z,1.80
2022-11-17T14:24:52.979Z,1.75
2022-11-17T14:27:32.193Z,1.73
2022-11-17T14:30:02.311Z,1.30
2022-11-17T14:32:29.337Z,1.45
2022-11-17T14:34:56.374Z,1.92
2022-11-17T14:37:25.943Z,1.88
2022-11-17T14:39:55.854Z,2.00
2022-11-17T14:42:23.117Z,2.20
2022-11-17T14:44:53.008Z,1.75
2022-11-17T14:47:27.101Z,1.67
2022-11-17T14:50:13.747Z,1.90
2022-11-17T14:52:46.975Z,1.92
2022-11-17T14:55:22.534Z,1.65
2022-11-17T14:57:57.781Z,1.58
2022-11-17T15:00:51.622Z,1.20
2022-11-17T15:03:27.492Z,1.77
2022-11-17T15:05:57.342Z,1.75
2022-11-17T15:08:35.936Z,2.17
2022-11-17T15:11:16.199Z,1.98
2022-11-17T15:13:46.429Z,1.80
2022-11-17T15:16:20.926Z,2.05
2022-11-17T15:18:50.714Z,2.33
2022-11-17T15:21:21.965Z,3.30
2022-11-17T15:23:52.384Z,3.58
2022-11-17T15:26:30.206Z,2.85
2022-11-17T15:29:12.152Z,3.00
2022-11-17T15:31:47.748Z,2.10
2022-11-17T15:34:57.567Z,2.35
2022-11-17T15:37:35.871Z,2.10
2022-11-17T15:40:19.388Z,2.40
2022-11-17T15:42:57.550Z,2.28
2022-11-17T15:45:31.488Z,1.77
2022-11-17T15:48:03.525Z,4.68
2022-11-17T15:50:33.628Z,4.45
2022-11-17T15:53:11.632Z,4.97
2022-11-17T15:55:39.565Z,3.63
2022-11-17T15:58:12.593Z,3.10
2022-11-17T16:00:50.060Z,2.58
2022-11-17T16:03:35.569Z,2.00
2022-11-17T16:06:41.690Z,3.60
2022-11-17T16:09:20.055Z,2.58
2022-11-17T16:12:03.786Z,2.45
2022-11-17T16:17:57.451Z,2.80
2022-11-17T16:20:35.494Z,4.38
2022-11-17T16:25:50.785Z,2.72
2022-11-17T16:28:23.679Z,3.80
2022-11-17T16:31:52.382Z,3.58
2022-11-17T16:34:22.782Z,4.20
2022-11-17T16:36:54.028Z,3.15
2022-11-17T16:39:29.110Z,3.95
2022-11-17T16:42:01.810Z,3.88
2022-11-17T16:44:31.712Z,5.72
2022-11-17T16:47:06.768Z,11.18
2022-11-17T16:49:37.706Z,11.85
2022-11-17T16:52:06.680Z,15.13
2022-11-17T16:54:45.566Z,8.60
2022-11-17T16:57:18.650Z,6.30
2022-11-17T16:59:56.424Z,5.22
2022-11-17T17:02:29.364Z,6.03
2022-11-17T17:04:57.868Z,5.03
2022-11-17T17:47:31.221Z,5.10
2022-11-17T18:10:04.002Z,7.50
2022-11-17T18:12:42.481Z,9.30
2022-11-17T18:15:20.383Z,10.90
2022-11-17T18:18:11.564Z,11.30
2022-11-17T18:22:00.307Z,9.55
2022-11-17T18:24:46.259Z,10.10
2022-11-17T18:29:23.716Z,9.38
2022-11-17T18:43:32.402Z,11.63
2022-11-17T18:46:13.491Z,9.07
2022-11-17T18:48:42.668Z,8.95
2022-11-17T18:51:44.736Z,12.75
2022-11-17T18:54:24.907Z,10.07
2022-11-17T18:57:03.047Z,8.70
2022-11-17T18:59:37.517Z,9.02
2022-11-17T19:02:13.932Z,8.35
2022-11-17T19:04:41.097Z,9.82
2022-11-17T19:07:16.890Z,8.25
2022-11-17T19:09:49.243Z,7.00
2022-11-17T19:12:18.718Z,6.55
2022-11-17T19:14:54.710Z,6.55
2022-11-17T19:18:52.005Z,7.65
2022-11-17T19:25:50.254Z,8.35
2022-11-17T19:28:25.982Z,9.20
2022-11-17T19:30:55.916Z,8.30
2022-11-17T19:33:40.068Z,9.45
2022-11-17T19:36:12.325Z,8.48
2022-11-17T19:38:50.110Z,7.63
2022-11-17T19:42:24.028Z,10.23
2022-11-17T19:48:35.611Z,8.52
2022-11-17T19:51:51.081Z,8.00
2022-11-17T19:55:01.263Z,8.88
2022-11-17T20:05:13.819Z,9.10
2022-11-17T20:08:45.792Z,10.15
2022-11-17T20:12:24.587Z,9.27
2022-11-17T20:30:00.295Z,10.90
2022-11-17T20:41:59.615Z,9.02
2022-11-17T20:44:58.139Z,7.78
2022-11-17T20:47:34.257Z,11.48
2022-11-17T20:50:08.953Z,10.05
2022-11-17T20:52:36.023Z,10.00
2022-11-17T20:55:03.054Z,10.63
2022-11-17T20:57:32.159Z,9.65
2022-11-17T20:59:59.087Z,9.80
2022-11-17T21:02:28.277Z,8.93
2022-11-17T21:04:55.234Z,10.02
2022-11-17T21:07:28.887Z,10.02
2022-11-17T21:10:02.558Z,9.38
2022-11-17T21:12:39.349Z,10.02
2022-11-17T21:15:35.174Z,10.70
2022-11-17T21:18:28.972Z,10.15
2022-11-17T21:21:20.998Z,9.73
2022-11-17T21:24:16.771Z,9.73
2022-11-17T21:26:48.485Z,10.60
2022-11-17T21:29:18.312Z,13.88
2022-11-17T21:31:48.572Z,19.88
2022-11-17T21:34:18.381Z,13.88
2022-11-17T21:36:48.502Z,10.20
2022-11-17T21:39:20.537Z,9.63
2022-11-17T21:41:50.181Z,10.93
2022-11-17T21:44:17.096Z,13.20
2022-11-17T21:46:43.942Z,9.32
2022-11-17T21:49:11.023Z,9.45
2022-11-17T21:52:31.404Z,8.90
2022-11-17T21:54:58.260Z,9.68
2022-11-17T21:57:29.317Z,10.63
2022-11-17T21:59:56.136Z,8.75
2022-11-17T22:02:23.114Z,9.23
2022-11-17T22:04:52.587Z,9.15
2022-11-17T22:07:19.678Z,8.95
2022-11-17T22:09:48.846Z,8.73
2022-11-17T22:12:17.983Z,8.38
2022-11-17T22:14:45.080Z,7.82
2022-11-17T22:17:12.184Z,8.55
2022-11-17T22:19:39.037Z,7.80
2022-11-17T22:22:06.127Z,7.38
2022-11-17T22:24:32.997Z,7.72
2022-11-17T22:26:59.770Z,8.80
2022-11-17T22:29:26.736Z,6.75
2022-11-17T22:31:53.518Z,7.05
2022-11-17T22:34:20.449Z,8.55
2022-11-17T22:36:47.474Z,7.75
2022-11-17T22:39:15.882Z,7.45
2022-11-17T22:41:43.183Z,7.72
2022-11-17T22:44:17.159Z,7.20
2022-11-17T22:46:44.584Z,6.55
2022-11-17T22:49:18.184Z,6.63
2022-11-17T22:52:05.939Z,6.55
2022-11-17T22:54:33.981Z,6.57
2022-11-17T22:57:01.657Z,7.22
2022-11-17T22:59:31.725Z,6.40
2022-11-17T23:01:58.729Z,6.43
2022-11-17T23:04:25.669Z,7.30
2022-11-17T23:07:00.935Z,6.40
2022-11-17T23:09:30.331Z,7.30
2022-11-17T23:11:57.083Z,6.85
2022-11-17T23:14:26.375Z,6.93
2022-11-17T23:16:53.151Z,6.22
2022-11-17T23:19:20.363Z,6.75
2022-11-17T23:21:47.652Z,5.68
2022-11-17T23:24:14.878Z,6.25
2022-11-17T23:26:42.565Z,6.68
2022-11-17T23:29:10.123Z,5.80
2022-11-17T23:31:37.153Z,5.53
2022-11-17T23:34:08.019Z,5.97
2022-11-17T23:36:34.854Z,5.63
2022-11-17T23:39:15.665Z,6.72
2022-11-17T23:41:42.654Z,8.07
2022-11-17T23:44:09.769Z,12.95
2022-11-17T23:46:37.015Z,9.98
2022-11-17T23:49:03.946Z,9.63
2022-11-17T23:51:31.075Z,8.18
2022-11-17T23:54:01.826Z,6.82
2022-11-17T23:56:32.563Z,7.35
